createdAt,value
2022-11-13T00:02:13.834Z,73.90
2022-11-13T00:05:00.309Z,73.17
2022-11-13T00:07:46.818Z,73.19
2022-11-13T00:10:33.099Z,72.65
2022-11-13T00:13:20.870Z,72.97
2022-11-13T00:16:10.890Z,73.53
2022-11-13T00:18:57.091Z,73.33
2022-11-13T00:21:43.705Z,73.71
2022-11-13T00:24:30.143Z,73.49
2022-11-13T00:27:16.696Z,73.61
2022-11-13T00:30:05.207Z,74.19
2022-11-13T00:32:51.520Z,74.43
2022-11-13T00:35:37.937Z,74.27
2022-11-13T00:38:24.372Z,74.49
2022-11-13T00:41:10.851Z,74.09
2022-11-13T00:43:57.371Z,74.17
2022-11-13T00:46:45.198Z,74.07
2022-11-13T00:49:31.655Z,74.42
2022-11-13T00:52:18.256Z,74.77
2022-11-13T00:55:05.333Z,74.48
2022-11-13T00:57:51.894Z,73.82
2022-11-13T01:00:38.415Z,73.78
2022-11-13T01:03:26.163Z,73.98
2022-11-13T01:06:15.320Z,74.23
2022-11-13T01:09:01.805Z,73.97
2022-11-13T01:11:48.066Z,73.99
2022-11-13T01:14:34.590Z,74.33
2022-11-13T01:17:21.150Z,74.71
2022-11-13T01:20:10.069Z,74.51
2022-11-13T01:22:56.585Z,74.21
2022-11-13T01:25:43.150Z,73.46
2022-11-13T01:28:29.787Z,74.37
2022-11-13T01:31:17.791Z,74.10
2022-11-13T01:34:04.396Z,75.12
2022-11-13T01:36:52.559Z,74.87
2022-11-13T01:39:38.803Z,74.65
2022-11-13T01:42:25.390Z,75.65
2022-11-13T01:45:49.051Z,75.55
2022-11-13T01:48:39.822Z,76.75
2022-11-13T01:51:30.625Z,76.37
2022-11-13T01:54:22.832Z,76.76
2022-11-13T01:57:10.596Z,77.17
2022-11-13T02:00:01.423Z,77.23
2022-11-13T02:02:47.879Z,77.63
2022-11-13T02:05:34.672Z,78.69
2022-11-13T02:08:21.382Z,77.34
2022-11-13T02:11:09.098Z,77.88
2022-11-13T02:13:55.954Z,78.31
2022-11-13T02:16:44.023Z,78.20
2022-11-13T02:19:33.990Z,77.75
2022-11-13T02:22:27.233Z,77.67
2022-11-13T02:25:15.275Z,77.75
2022-11-13T02:28:01.826Z,77.92
2022-11-13T02:30:48.390Z,76.97
2022-11-13T02:33:35.046Z,77.98
2022-11-13T02:36:23.926Z,78.04
2022-11-13T02:39:12.998Z,77.20
2022-11-13T02:42:00.973Z,77.14
2022-11-13T02:44:47.716Z,76.30
2022-11-13T02:47:34.963Z,76.73
2022-11-13T02:50:21.554Z,76.87
2022-11-13T02:53:08.450Z,76.15
2022-11-13T02:55:54.949Z,76.42
2022-11-13T02:58:42.854Z,76.54
2022-11-13T03:01:29.117Z,76.47
2022-11-13T03:04:15.446Z,75.17
2022-11-13T03:07:02.031Z,76.04
2022-11-13T03:09:48.548Z,75.59
2022-11-13T03:12:35.349Z,75.35
2022-11-13T03:15:23.559Z,74.74
2022-11-13T03:18:11.192Z,75.23
2022-11-13T03:20:57.718Z,75.43
2022-11-13T03:23:45.544Z,75.47
2022-11-13T03:26:31.819Z,75.70
2022-11-13T03:29:18.208Z,75.30
2022-11-13T03:32:06.696Z,75.82
2022-11-13T03:34:53.225Z,75.07
2022-11-13T03:37:39.817Z,75.18
2022-11-13T03:40:26.367Z,75.49
2022-11-13T03:43:12.875Z,74.54
2022-11-13T03:45:59.144Z,74.66
2022-11-13T03:48:46.617Z,73.72
2022-11-13T03:51:33.334Z,74.29
2022-11-13T03:54:20.083Z,74.37
2022-11-13T03:57:06.664Z,73.51
2022-11-13T03:59:53.007Z,74.11
2022-11-13T04:02:39.568Z,73.48
2022-11-13T04:05:27.608Z,73.53
2022-11-13T04:08:13.831Z,73.15
2022-11-13T04:11:07.542Z,72.56
2022-11-13T04:13:54.080Z,72.97
2022-11-13T04:16:40.868Z,73.71
2022-11-13T04:19:27.091Z,73.16
2022-11-13T04:22:15.140Z,73.32
2022-11-13T04:25:01.426Z,72.74
2022-11-13T04:27:49.638Z,73.63
2022-11-13T04:30:35.852Z,73.54
2022-11-13T04:33:22.584Z,72.64
2022-11-13T04:36:09.249Z,73.02
2022-11-13T04:38:57.095Z,73.57
2022-11-13T04:42:01.007Z,73.88
2022-11-13T04:44:47.419Z,73.53
2022-11-13T04:47:33.593Z,72.79
2022-11-13T04:50:20.638Z,73.62
2022-11-13T04:53:06.979Z,73.44
2022-11-13T04:55:54.869Z,73.58
2022-11-13T04:58:41.198Z,72.83
2022-11-13T05:01:27.731Z,73.19
2022-11-13T05:04:15.131Z,73.28
2022-11-13T05:07:01.467Z,72.90
2022-11-13T05:09:47.974Z,73.73
2022-11-13T05:12:35.795Z,73.38
2022-11-13T05:15:22.307Z,73.55
2022-11-13T05:18:08.906Z,73.02
2022-11-13T05:20:55.519Z,73.28
2022-11-13T05:23:42.032Z,73.43
2022-11-13T05:26:28.630Z,74.10
2022-11-13T05:29:16.313Z,74.59
2022-11-13T05:32:02.927Z,75.32
2022-11-13T05:34:49.560Z,75.16
2022-11-13T05:37:35.902Z,75.07
2022-11-13T05:40:22.575Z,75.41
2022-11-13T05:43:08.946Z,74.91
2022-11-13T05:46:02.378Z,75.12
2022-11-13T05:48:52.968Z,75.40
2022-11-13T05:51:39.326Z,75.49
2022-11-13T05:54:25.872Z,75.84
2022-11-13T05:57:12.290Z,75.75
2022-11-13T05:59:58.660Z,75.24
2022-11-13T06:02:46.325Z,75.43
2022-11-13T06:05:35.843Z,75.18
2022-11-13T06:08:21.980Z,74.91
2022-11-13T06:11:10.214Z,75.67
2022-11-13T06:13:58.316Z,75.04
2022-11-13T06:16:44.823Z,75.50
2022-11-13T06:19:32.695Z,76.53
2022-11-13T06:22:19.101Z,75.85
2022-11-13T06:25:06.463Z,76.15
2022-11-13T06:27:54.072Z,76.25
2022-11-13T06:30:40.413Z,75.15
2022-11-13T06:33:29.396Z,75.08
2022-11-13T06:36:21.361Z,75.78
2022-11-13T06:39:09.112Z,75.15
2022-11-13T06:41:55.611Z,75.07
2022-11-13T06:44:42.276Z,74.77
2022-11-13T06:47:29.508Z,74.70
2022-11-13T06:50:15.907Z,74.75
2022-11-13T06:53:03.773Z,75.10
2022-11-13T06:55:51.489Z,75.46
2022-11-13T06:58:37.911Z,75.32
2022-11-13T07:01:26.484Z,75.07
2022-11-13T07:04:16.553Z,75.51
2022-11-13T07:07:03.065Z,74.82
2022-11-13T07:09:50.885Z,75.05
2022-11-13T07:12:37.459Z,75.22
2022-11-13T07:15:23.939Z,75.38
2022-11-13T07:18:10.393Z,74.97
2022-11-13T07:20:56.931Z,74.75
2022-11-13T07:23:44.499Z,74.75
2022-11-13T07:26:34.100Z,75.29
2022-11-13T07:29:21.111Z,74.82
2022-11-13T07:32:07.545Z,75.50
2022-11-13T07:34:54.261Z,74.53
2022-11-13T07:37:41.092Z,74.75
2022-11-13T07:40:27.391Z,75.02
2022-11-13T07:43:15.435Z,75.23
2022-11-13T07:46:02.536Z,75.11
2022-11-13T07:48:49.172Z,75.35
2022-11-13T07:51:35.624Z,74.87
2022-11-13T07:54:22.205Z,75.01
2022-11-13T07:57:09.060Z,75.29
2022-11-13T07:59:56.818Z,75.35
2022-11-13T08:02:43.294Z,76.03
2022-11-13T08:05:31.528Z,76.32
2022-11-13T08:08:18.122Z,75.78
2022-11-13T08:11:06.249Z,76.15
2022-11-13T08:13:53.541Z,76.51
2022-11-13T08:16:41.246Z,77.27
2022-11-13T08:19:27.451Z,78.19
2022-11-13T08:22:13.991Z,78.03
2022-11-13T08:25:00.633Z,78.46
2022-11-13T08:27:46.863Z,78.93
2022-11-13T08:30:33.234Z,78.82
2022-11-13T08:33:21.180Z,78.88
2022-11-13T08:36:08.363Z,78.87
2022-11-13T08:38:54.838Z,78.94
2022-11-13T08:41:41.047Z,78.69
2022-11-13T08:44:27.600Z,78.07
2022-11-13T08:47:13.904Z,78.21
2022-11-13T08:50:01.760Z,78.04
2022-11-13T08:52:48.309Z,78.10
2022-11-13T08:55:35.508Z,78.18
2022-11-13T08:58:21.767Z,78.44
2022-11-13T09:01:08.386Z,78.80
2022-11-13T09:03:54.912Z,78.49
2022-11-13T09:06:42.607Z,78.48
2022-11-13T09:09:29.096Z,78.50
2022-11-13T09:12:15.694Z,77.86
2022-11-13T09:15:02.236Z,78.23
2022-11-13T09:17:48.664Z,77.54
2022-11-13T09:20:35.250Z,78.08
2022-11-13T09:23:23.112Z,77.63
2022-11-13T09:26:09.645Z,78.07
2022-11-13T09:28:56.252Z,77.58
2022-11-13T09:31:42.641Z,77.69
2022-11-13T09:34:29.816Z,77.92
2022-11-13T09:37:16.423Z,78.16
2022-11-13T09:40:04.622Z,77.93
2022-11-13T09:42:51.332Z,78.16
2022-11-13T09:45:41.562Z,78.47
2022-11-13T09:48:33.152Z,78.19
2022-11-13T09:51:22.168Z,78.16
2022-11-13T09:54:13.431Z,77.64
2022-11-13T09:57:11.452Z,78.41
2022-11-13T10:00:01.841Z,78.17
2022-11-13T10:02:59.480Z,78.62
2022-11-13T10:05:53.512Z,78.74
2022-11-13T10:08:51.929Z,79.10
2022-11-13T10:11:42.288Z,79.36
2022-11-13T10:14:35.791Z,79.51
2022-11-13T10:17:26.343Z,79.48
2022-11-13T10:20:16.969Z,79.14
2022-11-13T10:23:09.889Z,78.71
2022-11-13T10:26:00.969Z,79.30
2022-11-13T10:28:51.508Z,79.18
2022-11-13T10:31:48.676Z,79.35
2022-11-13T10:34:35.022Z,79.67
2022-11-13T10:37:31.252Z,79.41
2022-11-13T10:40:26.090Z,79.54
2022-11-13T10:43:17.747Z,79.66
2022-11-13T10:46:06.787Z,78.81
2022-11-13T10:48:54.378Z,79.41
2022-11-13T10:51:41.014Z,79.58
2022-11-13T10:54:28.900Z,78.89
2022-11-13T10:57:25.745Z,79.59
2022-11-13T11:00:24.195Z,79.87
2022-11-13T11:03:15.915Z,78.61
2022-11-13T11:06:06.273Z,78.94
2022-11-13T11:08:52.385Z,79.20
2022-11-13T11:11:56.580Z,78.74
2022-11-13T11:14:51.356Z,78.65
2022-11-13T11:17:43.699Z,78.20
2022-11-13T11:20:42.120Z,78.59
2022-11-13T11:23:38.338Z,78.54
2022-11-13T11:26:31.763Z,77.69
2022-11-13T11:29:22.806Z,77.50
2022-11-13T11:32:17.816Z,77.77
2022-11-13T11:35:13.958Z,77.16
2022-11-13T11:38:06.435Z,76.67
2022-11-13T11:41:00.386Z,77.50
2022-11-13T11:43:49.986Z,76.94
2022-11-13T11:46:37.354Z,76.73
2022-11-13T11:49:27.630Z,75.77
2022-11-13T11:52:30.700Z,76.09
2022-11-13T11:55:32.284Z,75.29
2022-11-13T11:58:55.885Z,75.42
2022-11-13T12:01:59.261Z,75.67
2022-11-13T12:04:59.720Z,74.76
2022-11-13T12:07:54.239Z,74.67
2022-11-13T12:10:49.371Z,74.80
2022-11-13T12:13:45.319Z,74.03
2022-11-13T12:16:42.538Z,73.88
2022-11-13T12:19:38.738Z,73.77
2022-11-13T12:22:32.021Z,73.62
2022-11-13T12:25:28.764Z,73.01
2022-11-13T12:28:21.357Z,73.29
2022-11-13T12:31:18.744Z,72.31
2022-11-13T12:34:14.210Z,72.07
2022-11-13T12:37:02.850Z,71.43
2022-11-13T12:39:57.138Z,71.45
2022-11-13T12:42:49.270Z,70.94
2022-11-13T12:45:50.708Z,71.29
2022-11-13T12:48:40.682Z,70.87
2022-11-13T12:51:38.307Z,69.86
2022-11-13T12:54:29.711Z,69.51
2022-11-13T12:57:25.850Z,69.57
2022-11-13T13:00:26.775Z,68.95
2022-11-13T13:03:37.123Z,68.82
2022-11-13T13:06:46.080Z,68.51
2022-11-13T13:09:50.678Z,68.12
2022-11-13T13:12:49.412Z,67.58
2022-11-13T13:15:38.414Z,67.41
2022-11-13T13:18:30.922Z,66.91
2022-11-13T13:21:19.398Z,66.57
2022-11-13T13:24:27.796Z,66.12
2022-11-13T13:27:23.355Z,65.97
2022-11-13T13:30:20.136Z,65.86
2022-11-13T13:33:20.510Z,65.58
2022-11-13T13:36:18.466Z,65.61
2022-11-13T13:39:17.255Z,65.50
2022-11-13T13:42:17.771Z,65.40
2022-11-13T13:45:24.948Z,65.27
2022-11-13T13:48:14.200Z,65.39
2022-11-13T13:51:01.581Z,65.20
2022-11-13T13:53:50.138Z,65.27
2022-11-13T13:56:43.304Z,65.26
2022-11-13T13:59:33.788Z,65.42
2022-11-13T14:02:23.138Z,65.45
2022-11-13T14:05:24.691Z,65.62
2022-11-13T14:08:18.015Z,65.77
2022-11-13T14:11:16.769Z,65.88
2022-11-13T14:14:11.356Z,65.96
2022-11-13T14:17:00.452Z,66.10
2022-11-13T14:19:50.681Z,66.10
2022-11-13T14:22:37.538Z,66.12
2022-11-13T14:25:27.948Z,66.22
2022-11-13T14:28:16.942Z,66.27
2022-11-13T14:31:07.939Z,66.63
2022-11-13T14:33:54.837Z,66.56
2022-11-13T14:36:41.313Z,66.61
2022-11-13T14:39:31.384Z,66.54
2022-11-13T14:42:20.313Z,66.70
2022-11-13T14:45:15.007Z,67.14
2022-11-13T14:48:05.306Z,67.48
2022-11-13T14:50:53.327Z,67.69
2022-11-13T14:53:42.663Z,67.62
2022-11-13T14:56:36.992Z,68.14
2022-11-13T14:59:27.857Z,68.25
2022-11-13T15:02:14.627Z,68.96
2022-11-13T15:05:02.310Z,69.13
2022-11-13T15:07:48.961Z,70.12
2022-11-13T15:10:35.417Z,69.71
2022-11-13T15:13:21.840Z,70.00
2022-11-13T15:16:12.067Z,70.84
2022-11-13T15:19:02.781Z,71.48
2022-11-13T15:22:20.270Z,72.01
2022-11-13T15:24:56.700Z,72.25
2022-11-13T15:27:43.612Z,72.01
2022-11-13T15:30:29.929Z,72.76
2022-11-13T15:33:17.722Z,73.28
2022-11-13T15:36:03.833Z,72.61
2022-11-13T15:38:51.489Z,73.64
2022-11-13T15:41:38.108Z,73.42
2022-11-13T15:44:24.634Z,73.67
2022-11-13T15:47:26.452Z,74.42
2022-11-13T15:50:15.347Z,75.02
2022-11-13T15:53:05.516Z,75.09
2022-11-13T15:55:53.548Z,75.56
2022-11-13T15:58:40.107Z,75.68
2022-11-13T16:01:26.905Z,75.93
2022-11-13T16:04:14.851Z,75.98
2022-11-13T16:07:01.297Z,76.24
2022-11-13T16:09:48.849Z,76.20
2022-11-13T16:12:36.505Z,76.17
2022-11-13T16:15:22.945Z,76.59
2022-11-13T16:18:19.729Z,76.88
2022-11-13T16:21:06.838Z,76.91
2022-11-13T16:23:53.350Z,76.97
2022-11-13T16:26:41.972Z,76.74
2022-11-13T16:29:30.897Z,77.06
2022-11-13T16:32:18.350Z,77.12
2022-11-13T16:35:04.905Z,77.19
2022-11-13T16:37:51.284Z,76.91
2022-11-13T16:40:37.711Z,77.15
2022-11-13T16:43:24.245Z,77.33
2022-11-13T16:46:21.404Z,77.52
2022-11-13T16:49:12.763Z,77.20
2022-11-13T16:51:59.175Z,77.71
2022-11-13T16:54:46.194Z,76.81
2022-11-13T16:57:32.619Z,77.76
2022-11-13T17:00:20.666Z,77.45
2022-11-13T17:03:08.253Z,77.41
2022-11-13T17:05:54.792Z,78.05
2022-11-13T17:08:41.332Z,78.11
2022-11-13T17:11:29.872Z,77.96
2022-11-13T17:14:16.453Z,78.20
2022-11-13T17:17:02.888Z,77.83
2022-11-13T17:19:50.703Z,77.39
2022-11-13T17:22:37.348Z,78.26
2022-11-13T17:25:26.522Z,77.61
2022-11-13T17:28:12.870Z,78.14
2022-11-13T17:31:02.870Z,77.71
2022-11-13T17:33:49.595Z,77.43
2022-11-13T17:36:37.359Z,77.65
2022-11-13T17:39:24.004Z,77.65
2022-11-13T17:42:10.606Z,77.60
2022-11-13T17:44:57.096Z,77.81
2022-11-13T17:47:43.809Z,77.44
2022-11-13T17:50:30.439Z,77.50
2022-11-13T17:53:18.115Z,77.68
2022-11-13T17:56:08.129Z,77.80
2022-11-13T17:58:54.579Z,77.01
2022-11-13T18:01:41.151Z,77.56
2022-11-13T18:04:27.515Z,77.27
2022-11-13T18:07:14.048Z,76.68
2022-11-13T18:10:01.976Z,77.19
2022-11-13T18:12:48.417Z,77.65
2022-11-13T18:15:36.415Z,77.12
2022-11-13T18:18:23.025Z,77.86
2022-11-13T18:21:22.368Z,77.04
2022-11-13T18:24:14.059Z,76.85
2022-11-13T18:27:02.058Z,76.65
2022-11-13T18:29:48.669Z,77.00
2022-11-13T18:32:35.050Z,76.82
2022-11-13T18:35:21.715Z,76.54
2022-11-13T18:38:08.286Z,76.09
2022-11-13T18:41:01.299Z,75.25
2022-11-13T18:43:50.791Z,75.91
2022-11-13T18:46:37.146Z,75.51
2022-11-13T18:49:23.760Z,75.35
2022-11-13T18:52:10.507Z,76.13
2022-11-13T18:54:56.623Z,75.95
2022-11-13T18:57:44.684Z,76.20
2022-11-13T19:00:32.597Z,76.40
2022-11-13T19:03:19.027Z,76.90
2022-11-13T19:06:07.043Z,77.09
2022-11-13T19:08:56.711Z,76.79
2022-11-13T19:11:44.198Z,77.05
2022-11-13T19:14:30.679Z,76.54
2022-11-13T19:17:18.695Z,76.57
2022-11-13T19:20:06.031Z,76.36
2022-11-13T19:22:52.277Z,76.53
2022-11-13T19:25:38.721Z,77.32
2022-11-13T19:28:25.528Z,76.66
2022-11-13T19:31:14.294Z,77.16
2022-11-13T19:34:04.720Z,76.51
2022-11-13T19:36:51.440Z,76.30
2022-11-13T19:39:38.140Z,76.82
2022-11-13T19:42:24.724Z,76.63
2022-11-13T19:45:12.021Z,77.84
2022-11-13T19:47:58.519Z,77.87
2022-11-13T19:50:47.355Z,77.55
2022-11-13T19:53:33.881Z,77.37
2022-11-13T19:56:21.993Z,76.86
2022-11-13T19:59:11.955Z,77.65
2022-11-13T20:01:58.154Z,77.59
2022-11-13T20:04:44.448Z,77.52
2022-11-13T20:07:32.471Z,77.29
2022-11-13T20:10:19.127Z,77.45
2022-11-13T20:13:05.603Z,76.89
2022-11-13T20:15:54.384Z,77.29
2022-11-13T20:18:42.756Z,77.40
2022-11-13T20:21:31.357Z,77.04
2022-11-13T20:24:19.243Z,76.44
2022-11-13T20:27:05.715Z,76.65
2022-11-13T20:29:52.325Z,76.42
2022-11-13T20:32:39.156Z,76.98
2022-11-13T20:35:25.276Z,77.66
2022-11-13T20:38:11.955Z,78.61
2022-11-13T20:40:59.781Z,78.92
2022-11-13T20:43:46.155Z,78.69
2022-11-13T20:46:32.650Z,77.72
2022-11-13T20:49:19.164Z,78.43
2022-11-13T20:52:07.038Z,78.11
2022-11-13T20:54:53.631Z,78.09
2022-11-13T20:57:41.369Z,77.46
2022-11-13T21:00:27.761Z,77.59
2022-11-13T21:03:14.590Z,77.54
2022-11-13T21:06:01.192Z,76.86
2022-11-13T21:08:47.970Z,76.92
2022-11-13T21:11:34.383Z,76.41
2022-11-13T21:14:22.226Z,77.19
2022-11-13T21:17:08.573Z,77.92
2022-11-13T21:19:57.584Z,78.05
2022-11-13T21:22:44.183Z,77.55
2022-11-13T21:25:30.928Z,77.15
2022-11-13T21:28:22.427Z,77.51
2022-11-13T21:31:15.523Z,76.64
2022-11-13T21:34:01.828Z,77.70
2022-11-13T21:36:48.414Z,77.03
2022-11-13T21:39:34.861Z,77.31
2022-11-13T21:42:21.394Z,77.26
2022-11-13T21:45:08.838Z,76.78
2022-11-13T21:47:56.426Z,76.33
2022-11-13T21:50:42.912Z,76.69
2022-11-13T21:53:29.399Z,75.58
2022-11-13T21:56:16.933Z,75.27
2022-11-13T21:59:03.515Z,74.75
2022-11-13T22:01:50.233Z,74.89
2022-11-13T22:04:38.167Z,75.09
2022-11-13T22:07:24.647Z,75.21
2022-11-13T22:10:11.210Z,74.72
2022-11-13T22:12:57.741Z,75.67
2022-11-13T22:15:44.163Z,74.46
2022-11-13T22:18:31.315Z,75.03
2022-11-13T22:21:19.336Z,74.56
2022-11-13T22:24:06.219Z,74.24
2022-11-13T22:26:52.610Z,73.83
2022-11-13T22:29:39.263Z,73.41
2022-11-13T22:32:25.367Z,74.50
2022-11-13T22:35:11.858Z,73.59
2022-11-13T22:37:59.796Z,73.20
2022-11-13T22:40:46.262Z,73.73
2022-11-13T22:43:34.182Z,73.84
2022-11-13T22:46:22.067Z,73.71
2022-11-13T22:49:08.439Z,73.09
2022-11-13T22:51:54.656Z,72.57
2022-11-13T22:54:42.453Z,73.96
2022-11-13T22:57:28.915Z,72.81
2022-11-13T23:00:15.862Z,74.12
2022-11-13T23:03:02.018Z,73.60
2022-11-13T23:05:48.554Z,74.31
2022-11-13T23:08:38.637Z,74.56
2022-11-13T23:11:28.213Z,74.74
2022-11-13T23:14:15.684Z,74.99
2022-11-13T23:17:02.296Z,74.72
2022-11-13T23:19:48.667Z,74.46
2022-11-13T23:22:35.113Z,74.44
2022-11-13T23:25:21.626Z,75.31
2022-11-13T23:28:09.435Z,75.23
2022-11-13T23:30:56.330Z,75.07
2022-11-13T23:33:42.997Z,75.50
2022-11-13T23:36:30.546Z,74.60
2022-11-13T23:39:16.800Z,75.34
2022-11-13T23:42:03.116Z,74.27
2022-11-13T23:44:50.862Z,74.95
2022-11-13T23:47:37.425Z,74.89
2022-11-13T23:50:24.239Z,74.90
2022-11-13T23:53:10.994Z,74.56
2022-11-13T23:55:57.442Z,73.90
2022-11-13T23:58:44.119Z,74.03
